createdAt,value
2023-05-05T00:02:12.326Z,100401.72
2023-05-05T00:04:40.141Z,100396.16
2023-05-05T00:07:06.832Z,100387.97
2023-05-05T00:09:33.327Z,100388.72
2023-05-05T00:11:59.819Z,100385.00
2023-05-05T00:14:26.304Z,100380.91
2023-05-05T00:16:52.839Z,100391.50
2023-05-05T00:19:19.344Z,100374.38
2023-05-05T00:21:47.146Z,100369.16
2023-05-05T00:24:13.587Z,100357.13
2023-05-05T00:26:40.073Z,100360.53
2023-05-05T00:29:06.520Z,100363.91
2023-05-05T00:31:33.014Z,100349.50
2023-05-05T00:33:59.503Z,100347.66
2023-05-05T00:36:26.013Z,100346.09
2023-05-05T00:38:53.922Z,100352.03
2023-05-05T00:41:20.431Z,100343.94
2023-05-05T00:43:46.915Z,100343.97
2023-05-05T00:46:22.116Z,100346.38
2023-05-05T00:48:48.746Z,100348.09
2023-05-05T00:51:16.416Z,100350.63
2023-05-05T00:53:43.564Z,100350.47
2023-05-05T00:56:12.020Z,100348.50
2023-05-05T00:58:41.347Z,100353.16
2023-05-05T01:01:07.874Z,100349.06
2023-05-05T01:03:36.957Z,100339.53
2023-05-05T01:06:21.256Z,100341.59
2023-05-05T01:09:02.626Z,100345.69
2023-05-05T01:11:39.024Z,100341.84
2023-05-05T01:14:13.233Z,100339.03
2023-05-05T01:16:50.283Z,100331.81
2023-05-05T01:19:49.833Z,100325.13
2023-05-05T01:22:19.895Z,100323.16
2023-05-05T01:25:01.068Z,100333.06
2023-05-05T01:27:48.187Z,100331.69
2023-05-05T01:30:28.451Z,100322.44
2023-05-05T01:33:00.708Z,100324.88
2023-05-05T01:35:30.126Z,100325.88
2023-05-05T01:38:02.825Z,100325.56
2023-05-05T01:40:33.527Z,100318.19
2023-05-05T01:43:03.490Z,100321.28
2023-05-05T01:45:33.455Z,100325.69
2023-05-05T01:48:02.819Z,100321.44
2023-05-05T01:50:29.959Z,100316.63
2023-05-05T01:52:57.052Z,100319.06
2023-05-05T01:55:25.717Z,100326.03
2023-05-05T01:57:54.606Z,100308.72
2023-05-05T02:00:22.435Z,100297.97
2023-05-05T02:02:49.987Z,100299.69
2023-05-05T02:05:19.488Z,100309.31
2023-05-05T02:07:46.567Z,100323.16
2023-05-05T02:10:14.306Z,100330.63
2023-05-05T02:12:42.903Z,100326.53
2023-05-05T02:15:10.922Z,100330.84
2023-05-05T02:17:40.434Z,100328.84
2023-05-05T02:20:09.226Z,100329.56
2023-05-05T02:22:37.213Z,100332.94
2023-05-05T02:25:04.366Z,100322.03
2023-05-05T02:27:34.713Z,100320.09
2023-05-05T02:30:04.646Z,100321.44
2023-05-05T02:32:34.696Z,100313.81
2023-05-05T02:35:09.066Z,100315.06
2023-05-05T02:37:38.308Z,100311.13
2023-05-05T02:40:07.529Z,100309.16
2023-05-05T02:42:37.032Z,100311.69
2023-05-05T02:45:08.833Z,100326.84
2023-05-05T02:47:35.633Z,100324.88
2023-05-05T02:50:02.168Z,100330.53
2023-05-05T02:52:28.963Z,100331.91
2023-05-05T02:54:56.860Z,100330.06
2023-05-05T02:57:31.532Z,100338.41
2023-05-05T03:00:03.414Z,100339.00
2023-05-05T03:02:40.781Z,100345.13
2023-05-05T03:05:11.743Z,100341.28
2023-05-05T03:07:42.553Z,100334.94
2023-05-05T03:10:15.066Z,100331.09
2023-05-05T03:12:46.527Z,100335.78
2023-05-05T03:15:14.208Z,100332.75
2023-05-05T03:17:43.985Z,100329.50
2023-05-05T03:20:12.000Z,100323.41
2023-05-05T03:22:38.471Z,100328.41
2023-05-05T03:25:05.505Z,100328.97
2023-05-05T03:27:33.452Z,100328.84
2023-05-05T03:29:59.940Z,100326.03
2023-05-05T03:32:26.505Z,100320.47
2023-05-05T03:34:52.978Z,100316.78
2023-05-05T03:37:19.444Z,100312.94
2023-05-05T03:39:45.901Z,100309.84
2023-05-05T03:42:12.471Z,100302.22
2023-05-05T03:44:40.223Z,100304.19
2023-05-05T03:47:06.833Z,100307.56
2023-05-05T03:49:33.268Z,100315.53
2023-05-05T03:51:59.772Z,100316.09
2023-05-05T03:54:26.275Z,100308.88
2023-05-05T03:56:52.841Z,100306.19
2023-05-05T03:59:19.377Z,100304.78
2023-05-05T04:01:47.166Z,100308.00
2023-05-05T04:04:13.663Z,100303.06
2023-05-05T04:06:40.252Z,100307.00
2023-05-05T04:09:06.757Z,100308.56
2023-05-05T04:11:33.266Z,100303.94
2023-05-05T04:13:59.713Z,100299.25
2023-05-05T04:16:26.333Z,100292.88
2023-05-05T04:18:54.324Z,100299.97
2023-05-05T04:21:20.808Z,100295.56
2023-05-05T04:23:47.415Z,100293.72
2023-05-05T04:26:13.856Z,100293.59
2023-05-05T04:28:40.338Z,100296.41
2023-05-05T04:31:06.920Z,100300.66
2023-05-05T04:33:33.414Z,100303.94
2023-05-05T04:36:01.211Z,100296.56
2023-05-05T04:38:27.703Z,100305.34
2023-05-05T04:40:54.194Z,100301.66
2023-05-05T04:43:20.708Z,100296.28
2023-05-05T04:45:54.931Z,100298.38
2023-05-05T04:48:21.366Z,100305.31
2023-05-05T04:50:48.159Z,100310.84
2023-05-05T04:53:15.929Z,100311.56
2023-05-05T04:55:42.505Z,100312.09
2023-05-05T04:58:08.985Z,100310.97
2023-05-05T05:00:35.932Z,100308.72
2023-05-05T05:03:02.674Z,100318.06
2023-05-05T05:05:29.212Z,100312.97
2023-05-05T05:07:55.647Z,100323.72
2023-05-05T05:10:23.477Z,100322.03
2023-05-05T05:12:49.948Z,100322.16
2023-05-05T05:15:16.390Z,100320.59
2023-05-05T05:17:42.902Z,100327.25
2023-05-05T05:20:10.175Z,100332.34
2023-05-05T05:22:37.058Z,100331.34
2023-05-05T05:25:03.921Z,100334.06
2023-05-05T05:27:31.712Z,100340.84
2023-05-05T05:29:58.174Z,100343.53
2023-05-05T05:32:24.625Z,100345.22
2023-05-05T05:34:51.161Z,100340.56
2023-05-05T05:37:17.676Z,100362.88
2023-05-05T05:39:44.194Z,100348.03
2023-05-05T05:42:10.661Z,100354.00
2023-05-05T05:44:38.436Z,100357.25
2023-05-05T05:47:04.967Z,100356.25
2023-05-05T05:49:31.410Z,100355.28
2023-05-05T05:51:57.868Z,100359.53
2023-05-05T05:54:24.409Z,100360.41
2023-05-05T05:56:50.890Z,100359.38
2023-05-05T05:59:17.556Z,100358.22
2023-05-05T06:01:45.387Z,100365.56
2023-05-05T06:04:11.881Z,100370.28
2023-05-05T06:06:38.493Z,100359.25
2023-05-05T06:09:04.979Z,100353.44
2023-05-05T06:11:31.445Z,100367.28
2023-05-05T06:13:57.883Z,100370.53
2023-05-05T06:16:24.669Z,100376.72
2023-05-05T06:18:52.537Z,100373.56
2023-05-05T06:21:18.972Z,100391.81
2023-05-05T06:23:45.414Z,100376.53
2023-05-05T06:26:11.965Z,100376.78
2023-05-05T06:28:38.483Z,100377.22
2023-05-05T06:31:05.075Z,100379.44
2023-05-05T06:33:31.584Z,100383.22
2023-05-05T06:35:59.440Z,100384.69
2023-05-05T06:38:25.967Z,100378.00
2023-05-05T06:40:52.429Z,100375.72
2023-05-05T06:43:18.931Z,100376.09
2023-05-05T06:45:45.395Z,100373.09
2023-05-05T06:48:12.317Z,100372.53
2023-05-05T06:50:38.828Z,100385.69
2023-05-05T06:53:07.227Z,100388.63
2023-05-05T06:55:33.768Z,100386.25
2023-05-05T06:58:00.376Z,100390.16
2023-05-05T07:00:27.066Z,100389.78
2023-05-05T07:02:53.567Z,100391.28
2023-05-05T07:05:20.264Z,100392.13
2023-05-05T07:07:51.380Z,100383.50
2023-05-05T07:10:19.614Z,100396.66
2023-05-05T07:12:46.188Z,100396.06
2023-05-05T07:15:26.779Z,100397.50
2023-05-05T07:17:55.748Z,100395.25
2023-05-05T07:20:22.256Z,100400.09
2023-05-05T07:22:48.777Z,100401.09
2023-05-05T07:25:15.266Z,100404.63
2023-05-05T07:27:43.208Z,100403.88
2023-05-05T07:30:13.206Z,100405.59
2023-05-05T07:32:42.028Z,100399.25
2023-05-05T07:35:09.047Z,100401.19
2023-05-05T07:37:35.674Z,100395.41
2023-05-05T07:40:02.151Z,100398.41
2023-05-05T07:42:28.724Z,100396.97
2023-05-05T07:44:56.529Z,100394.41
2023-05-05T07:47:23.105Z,100396.97
2023-05-05T07:49:49.654Z,100392.72
2023-05-05T07:52:16.169Z,100396.66
2023-05-05T07:54:42.628Z,100389.56
2023-05-05T07:57:09.112Z,100395.94
2023-05-05T07:59:35.634Z,100388.97
2023-05-05T08:02:03.551Z,100391.56
2023-05-05T08:04:30.077Z,100396.06
2023-05-05T08:06:56.639Z,100395.22
2023-05-05T08:09:23.185Z,100393.72
2023-05-05T08:11:49.624Z,100396.66
2023-05-05T08:14:16.208Z,100398.34
2023-05-05T08:16:42.710Z,100401.34
2023-05-05T08:19:21.184Z,100405.78
2023-05-05T08:21:54.932Z,100405.22
2023-05-05T08:24:21.428Z,100404.00
2023-05-05T08:26:47.933Z,100401.91
2023-05-05T08:29:14.451Z,100393.16
2023-05-05T08:31:41.117Z,100390.19
2023-05-05T08:34:07.752Z,100397.09
2023-05-05T08:36:35.632Z,100388.63
2023-05-05T08:39:02.227Z,100397.13
2023-05-05T08:41:28.773Z,100392.47
2023-05-05T08:43:55.308Z,100391.91
2023-05-05T08:46:22.474Z,100397.72
2023-05-05T08:48:52.250Z,100400.13
2023-05-05T08:51:19.944Z,100397.84
2023-05-05T08:53:56.502Z,100404.72
2023-05-05T08:56:26.080Z,100403.00
2023-05-05T08:58:53.019Z,100408.63
2023-05-05T09:01:21.862Z,100407.50
2023-05-05T09:03:48.510Z,100411.44
2023-05-05T09:06:15.455Z,100409.03
2023-05-05T09:08:42.102Z,100406.75
2023-05-05T09:11:09.850Z,100410.13
2023-05-05T09:13:36.363Z,100408.84
2023-05-05T09:16:02.805Z,100416.91
2023-05-05T09:18:29.399Z,100410.53
2023-05-05T09:20:58.753Z,100412.13
2023-05-05T09:23:25.946Z,100411.41
2023-05-05T09:26:04.131Z,100409.97
2023-05-05T09:28:32.062Z,100407.34
2023-05-05T09:31:12.753Z,100412.44
2023-05-05T09:33:39.458Z,100409.63
2023-05-05T09:36:06.652Z,100408.75
2023-05-05T09:38:35.029Z,100409.03
2023-05-05T09:41:01.515Z,100400.97
2023-05-05T09:43:28.082Z,100391.91
2023-05-05T09:46:06.052Z,100397.75
2023-05-05T09:48:33.001Z,100404.34
2023-05-05T09:50:59.752Z,100398.28
2023-05-05T09:53:26.798Z,100404.66
2023-05-05T09:55:54.709Z,100402.66
2023-05-05T09:58:22.935Z,100405.59
2023-05-05T10:00:50.054Z,100395.06
2023-05-05T10:03:18.169Z,100394.97
2023-05-05T10:05:49.214Z,100397.69
2023-05-05T10:08:17.503Z,100390.47
2023-05-05T10:10:49.888Z,100388.25
2023-05-05T10:13:19.195Z,100388.81
2023-05-05T10:15:47.065Z,100391.91
2023-05-05T10:18:15.111Z,100393.34
2023-05-05T10:20:45.251Z,100386.53
2023-05-05T10:23:14.883Z,100386.22
2023-05-05T10:25:46.492Z,100384.84
2023-05-05T10:28:19.619Z,100389.50
2023-05-05T10:30:51.022Z,100386.41
2023-05-05T10:36:00.459Z,100386.66
2023-05-05T10:38:28.963Z,100380.84
2023-05-05T10:40:57.637Z,100390.41
2023-05-05T10:43:24.643Z,100384.88
2023-05-05T10:45:51.704Z,100383.06
2023-05-05T10:48:25.077Z,100395.38
2023-05-05T10:50:57.289Z,100392.25
2023-05-05T10:53:28.734Z,100387.72
2023-05-05T10:56:06.793Z,100383.47
2023-05-05T10:58:43.645Z,100375.56
2023-05-05T11:01:29.005Z,100373.50
2023-05-05T11:04:20.293Z,100368.47
2023-05-05T11:07:14.801Z,100365.75
2023-05-05T11:09:57.201Z,100373.13
2023-05-05T11:12:24.026Z,100371.97
2023-05-05T11:15:10.390Z,100368.03
2023-05-05T11:17:45.426Z,100360.66
2023-05-05T11:20:11.967Z,100358.84
2023-05-05T11:23:03.338Z,100363.47
2023-05-05T11:25:48.404Z,100355.81
2023-05-05T11:28:16.283Z,100366.97
2023-05-05T11:31:07.591Z,100363.59
2023-05-05T11:33:35.604Z,100351.41
2023-05-05T11:36:06.669Z,100353.53
2023-05-05T11:38:43.883Z,100345.91
2023-05-05T11:41:13.914Z,100343.22
2023-05-05T11:43:40.860Z,100331.34
2023-05-05T11:46:10.667Z,100338.69
2023-05-05T11:48:44.320Z,100335.16
2023-05-05T11:51:11.658Z,100330.78
2023-05-05T11:53:41.677Z,100328.78
2023-05-05T11:56:08.895Z,100328.78
2023-05-05T11:58:36.994Z,100316.22
2023-05-05T12:01:05.688Z,100312.38
2023-05-05T12:03:34.930Z,100318.88
2023-05-05T12:06:01.703Z,100319.59
2023-05-05T12:08:28.467Z,100315.22
2023-05-05T12:11:02.591Z,100319.44
2023-05-05T12:13:29.157Z,100325.13
2023-05-05T12:15:57.116Z,100307.59
2023-05-05T12:18:23.632Z,100317.34
2023-05-05T12:20:50.187Z,100330.94
2023-05-05T12:23:16.686Z,100335.59
2023-05-05T12:25:43.170Z,100333.47
2023-05-05T12:28:09.790Z,100339.81
2023-05-05T12:30:36.683Z,100329.63
2023-05-05T12:33:06.035Z,100344.91
2023-05-05T12:35:32.919Z,100342.22
2023-05-05T12:37:59.437Z,100336.28
2023-05-05T12:40:42.508Z,100337.50
2023-05-05T12:43:09.014Z,100333.88
2023-05-05T12:45:35.656Z,100341.34
2023-05-05T12:48:20.758Z,100337.22
2023-05-05T12:50:47.258Z,100341.75
2023-05-05T12:53:20.890Z,100340.50
2023-05-05T12:55:47.443Z,100332.44
2023-05-05T12:58:13.882Z,100336.94
2023-05-05T13:00:40.315Z,100336.38
2023-05-05T13:03:18.553Z,100339.78
2023-05-05T13:05:45.123Z,100335.69
2023-05-05T13:08:11.584Z,100328.88
2023-05-05T13:10:38.210Z,100337.25
2023-05-05T13:13:04.727Z,100334.97
2023-05-05T13:15:33.512Z,100325.22
2023-05-05T13:18:00.758Z,100322.84
2023-05-05T13:20:28.709Z,100323.81
2023-05-05T13:22:55.184Z,100332.13
2023-05-05T13:25:21.625Z,100329.91
2023-05-05T13:27:48.154Z,100334.28
2023-05-05T13:30:14.900Z,100333.28
2023-05-05T13:32:41.438Z,100343.47
2023-05-05T13:35:09.094Z,100340.69
2023-05-05T13:37:37.074Z,100327.66
2023-05-05T13:40:04.027Z,100325.97
2023-05-05T13:42:30.440Z,100336.59
2023-05-05T13:44:56.991Z,100340.41
2023-05-05T13:47:23.614Z,100338.75
2023-05-05T13:49:50.252Z,100356.16
2023-05-05T13:52:16.805Z,100382.31
2023-05-05T13:54:44.616Z,100396.19
2023-05-05T13:57:11.076Z,100400.72
2023-05-05T13:59:37.553Z,100369.00
2023-05-05T14:02:04.027Z,100364.72
2023-05-05T14:04:30.551Z,100359.75
2023-05-05T14:06:57.100Z,100380.81
2023-05-05T14:09:23.584Z,100361.03
2023-05-05T14:11:51.340Z,100350.19
2023-05-05T14:14:17.837Z,100339.84
2023-05-05T14:16:44.380Z,100329.50
2023-05-05T14:19:10.866Z,100333.59
2023-05-05T14:21:37.417Z,100331.63
2023-05-05T14:24:04.261Z,100324.00
2023-05-05T14:26:30.735Z,100316.50
2023-05-05T14:28:58.673Z,100325.44
2023-05-05T14:31:25.131Z,100318.63
2023-05-05T14:33:51.614Z,100314.38
2023-05-05T14:36:18.087Z,100328.22
2023-05-05T14:38:44.590Z,100328.78
2023-05-05T14:41:11.298Z,100320.59
2023-05-05T14:43:37.795Z,100324.53
2023-05-05T14:46:06.419Z,100325.41
2023-05-05T14:48:33.413Z,100362.91
2023-05-05T14:50:59.844Z,100352.03
2023-05-05T14:53:26.393Z,100360.81
2023-05-05T14:55:52.958Z,100342.13
2023-05-05T14:58:19.396Z,100330.63
2023-05-05T15:00:45.861Z,100318.59
2023-05-05T15:03:13.738Z,100316.59
2023-05-05T15:05:40.206Z,100308.38
2023-05-05T15:08:06.724Z,100297.25
2023-05-05T15:10:33.217Z,100298.69
2023-05-05T15:12:59.761Z,100297.53
2023-05-05T15:15:26.203Z,100298.63
2023-05-05T15:17:52.786Z,100299.06
2023-05-05T15:20:20.643Z,100304.84
2023-05-05T15:22:48.441Z,100302.16
2023-05-05T15:25:16.088Z,100306.28
2023-05-05T15:27:42.706Z,100301.75
2023-05-05T15:30:09.952Z,100304.19
2023-05-05T15:32:36.413Z,100308.72
2023-05-05T15:35:03.017Z,100295.28
2023-05-05T15:37:30.767Z,100297.13
2023-05-05T15:39:57.253Z,100292.00
2023-05-05T15:42:23.910Z,100284.78
2023-05-05T15:44:51.013Z,100286.03
2023-05-05T15:47:17.533Z,100276.97
2023-05-05T15:49:44.143Z,100279.66
2023-05-05T15:52:10.612Z,100277.44
2023-05-05T15:54:38.379Z,100277.03
2023-05-05T15:57:04.925Z,100275.78
2023-05-05T15:59:31.559Z,100264.31
2023-05-05T16:01:58.009Z,100269.38
2023-05-05T16:04:24.465Z,100259.84
2023-05-05T16:06:50.912Z,100264.94
2023-05-05T16:09:17.345Z,100270.03
2023-05-05T16:11:45.082Z,100266.91
2023-05-05T16:14:11.541Z,100273.00
2023-05-05T16:16:38.484Z,100276.09
2023-05-05T16:19:05.035Z,100272.19
2023-05-05T16:21:31.523Z,100263.28
2023-05-05T16:23:57.937Z,100265.88
2023-05-05T16:26:24.450Z,100267.13
2023-05-05T16:28:52.287Z,100268.81
2023-05-05T16:31:18.997Z,100272.63
2023-05-05T16:33:45.507Z,100273.19
2023-05-05T16:36:12.519Z,100268.34
2023-05-05T16:38:39.240Z,100276.97
2023-05-05T16:41:05.772Z,100279.50
2023-05-05T16:43:32.320Z,100282.34
2023-05-05T16:46:00.164Z,100276.56
2023-05-05T16:48:26.597Z,100284.97
2023-05-05T16:50:53.113Z,100279.88
2023-05-05T16:53:19.568Z,100271.91
2023-05-05T16:55:49.672Z,100270.50
2023-05-05T16:58:16.171Z,100273.56
2023-05-05T17:00:42.998Z,100272.44
2023-05-05T17:03:10.858Z,100277.66
2023-05-05T17:05:37.487Z,100276.00
2023-05-05T17:08:04.324Z,100279.16
2023-05-05T17:10:30.783Z,100275.06
2023-05-05T17:12:57.236Z,100284.06
2023-05-05T17:15:23.701Z,100287.75
2023-05-05T17:17:50.246Z,100273.84
2023-05-05T17:20:17.994Z,100283.31
2023-05-05T17:22:44.467Z,100275.13
2023-05-05T17:25:11.211Z,100276.69
2023-05-05T17:27:38.061Z,100270.03
2023-05-05T17:30:05.263Z,100271.91
2023-05-05T17:32:31.820Z,100275.91
2023-05-05T17:34:58.401Z,100284.81
2023-05-05T17:37:26.185Z,100281.56
2023-05-05T17:39:52.615Z,100289.16
2023-05-05T17:42:19.042Z,100293.97
2023-05-05T17:44:47.520Z,100289.16
2023-05-05T17:47:14.152Z,100288.03
2023-05-05T17:49:40.610Z,100295.94
2023-05-05T17:52:07.192Z,100298.34
2023-05-05T17:54:34.964Z,100295.09
2023-05-05T17:57:01.482Z,100282.28
2023-05-05T17:59:27.927Z,100284.53
2023-05-05T18:01:54.366Z,100286.38
2023-05-05T18:04:20.923Z,100284.78
2023-05-05T18:06:47.454Z,100281.53
2023-05-05T18:09:14.171Z,100294.53
2023-05-05T18:11:41.871Z,100281.81
2023-05-05T18:14:08.364Z,100279.78
2023-05-05T18:16:34.818Z,100281.19
2023-05-05T18:19:01.263Z,100283.75
2023-05-05T18:21:27.705Z,100289.16
2023-05-05T18:23:57.266Z,100301.50
2023-05-05T18:26:28.319Z,100295.28
2023-05-05T18:28:56.079Z,100302.78
2023-05-05T18:31:22.585Z,100298.25
2023-05-05T18:33:49.212Z,100303.91
2023-05-05T18:36:15.764Z,100308.81
2023-05-05T18:38:42.291Z,100310.50
2023-05-05T18:41:08.778Z,100309.53
2023-05-05T18:43:35.219Z,100317.31
2023-05-05T18:46:02.981Z,100316.59
2023-05-05T18:48:29.732Z,100320.19
2023-05-05T18:51:00.718Z,100315.81
2023-05-05T18:53:28.832Z,100311.56
2023-05-05T18:55:55.297Z,100311.69
2023-05-05T18:58:21.831Z,100306.72
2023-05-05T19:00:48.383Z,100316.34
2023-05-05T19:03:16.206Z,100311.50
2023-05-05T19:05:42.673Z,100317.44
2023-05-05T19:08:09.173Z,100322.69
2023-05-05T19:10:35.889Z,100323.41
2023-05-05T19:13:02.374Z,100317.06
2023-05-05T19:15:28.819Z,100324.75
2023-05-05T19:17:55.388Z,100331.78
2023-05-05T19:20:23.189Z,100338.28
2023-05-05T19:22:49.634Z,100339.84
2023-05-05T19:25:16.616Z,100342.22
2023-05-05T19:27:43.081Z,100341.09
2023-05-05T19:30:10.821Z,100347.19
2023-05-05T19:32:37.329Z,100351.47
2023-05-05T19:35:04.008Z,100344.13
2023-05-05T19:37:31.788Z,100345.97
2023-05-05T19:39:58.216Z,100343.25
2023-05-05T19:42:24.885Z,100341.09
2023-05-05T19:44:51.362Z,100344.38
2023-05-05T19:47:17.842Z,100342.38
2023-05-05T19:49:44.350Z,100336.72
2023-05-05T19:52:10.751Z,100345.47
2023-05-05T19:54:38.543Z,100347.47
2023-05-05T19:57:05.040Z,100346.66
2023-05-05T19:59:31.538Z,100347.53
2023-05-05T20:01:58.086Z,100345.81
2023-05-05T20:04:24.597Z,100346.94
2023-05-05T20:06:51.141Z,100352.03
2023-05-05T20:09:17.556Z,100353.59
2023-05-05T20:11:45.364Z,100351.47
2023-05-05T20:14:11.965Z,100351.19
2023-05-05T20:16:39.010Z,100358.25
2023-05-05T20:19:05.544Z,100360.94
2023-05-05T20:21:33.543Z,100356.28
2023-05-05T20:24:00.217Z,100354.59
2023-05-05T20:26:26.815Z,100351.34
2023-05-05T20:28:54.586Z,100359.69
2023-05-05T20:31:21.228Z,100360.09
2023-05-05T20:33:47.830Z,100359.94
2023-05-05T20:36:15.223Z,100364.19
2023-05-05T20:38:43.280Z,100365.88
2023-05-05T20:41:09.846Z,100366.59
2023-05-05T20:43:36.686Z,100364.19
2023-05-05T20:46:04.653Z,100362.22
2023-05-05T20:48:31.089Z,100357.41
2023-05-05T20:50:57.550Z,100365.34
2023-05-05T20:53:24.003Z,100368.44
2023-05-05T20:55:50.478Z,100361.09
2023-05-05T20:58:17.014Z,100368.16
2023-05-05T21:00:43.674Z,100380.31
2023-05-05T21:03:11.481Z,100372.97
2023-05-05T21:05:39.047Z,100369.28
2023-05-05T21:08:05.797Z,100369.72
2023-05-05T21:10:32.290Z,100363.94
2023-05-05T21:12:58.818Z,100365.91
2023-05-05T21:15:25.303Z,100374.81
2023-05-05T21:17:51.885Z,100373.81
2023-05-05T21:20:19.802Z,100379.75
2023-05-05T21:22:46.286Z,100378.75
2023-05-05T21:25:14.134Z,100373.25
2023-05-05T21:27:40.615Z,100380.47
2023-05-05T21:30:10.148Z,100377.50
2023-05-05T21:32:37.681Z,100377.47
2023-05-05T21:35:05.627Z,100372.13
2023-05-05T21:37:34.141Z,100373.41
2023-05-05T21:40:00.597Z,100374.09
2023-05-05T21:42:29.035Z,100367.44
2023-05-05T21:44:55.473Z,100374.38
2023-05-05T21:47:21.997Z,100374.09
2023-05-05T21:49:48.593Z,100372.25
2023-05-05T21:52:15.011Z,100369.16
2023-05-05T21:54:42.760Z,100366.19
2023-05-05T21:57:09.267Z,100361.34
2023-05-05T21:59:35.668Z,100359.81
2023-05-05T22:02:02.214Z,100356.56
2023-05-05T22:04:28.756Z,100363.34
2023-05-05T22:06:55.228Z,100360.53
2023-05-05T22:09:21.843Z,100356.56
2023-05-05T22:11:50.307Z,100364.63
2023-05-05T22:14:16.861Z,100355.44
2023-05-05T22:16:43.346Z,100363.34
2023-05-05T22:19:09.893Z,100354.44
2023-05-05T22:21:36.469Z,100353.31
2023-05-05T22:24:02.951Z,100358.66
2023-05-05T22:26:29.412Z,100357.56
2023-05-05T22:28:57.215Z,100366.59
2023-05-05T22:31:23.668Z,100359.97
2023-05-05T22:33:50.145Z,100356.13
2023-05-05T22:36:16.598Z,100365.63
2023-05-05T22:38:43.041Z,100363.78
2023-05-05T22:41:09.575Z,100361.78
2023-05-05T22:43:36.073Z,100360.66
2023-05-05T22:46:03.854Z,100357.25
2023-05-05T22:48:30.316Z,100353.59
2023-05-05T22:50:56.807Z,100356.25
2023-05-05T22:53:23.349Z,100348.38
2023-05-05T22:55:49.803Z,100352.19
2023-05-05T22:58:16.285Z,100352.75
2023-05-05T23:00:42.755Z,100355.28
2023-05-05T23:03:10.854Z,100351.47
2023-05-05T23:05:37.314Z,100355.00
2023-05-05T23:08:04.565Z,100344.97
2023-05-05T23:10:31.028Z,100354.56
2023-05-05T23:12:57.639Z,100346.25
2023-05-05T23:15:24.107Z,100343.81
2023-05-05T23:17:50.653Z,100341.28
2023-05-05T23:20:18.521Z,100339.03
2023-05-05T23:22:45.005Z,100339.59
2023-05-05T23:25:11.981Z,100341.00
2023-05-05T23:27:39.059Z,100339.88
2023-05-05T23:30:06.480Z,100337.00
2023-05-05T23:32:33.102Z,100329.78
2023-05-05T23:34:59.571Z,100329.66
2023-05-05T23:37:27.364Z,100325.13
2023-05-05T23:39:53.810Z,100329.34
2023-05-05T23:42:20.233Z,100336.47
2023-05-05T23:44:46.773Z,100328.41
2023-05-05T23:47:13.245Z,100322.59
2023-05-05T23:49:39.681Z,100317.91
2023-05-05T23:52:06.120Z,100320.31
2023-05-05T23:54:33.916Z,100326.41
2023-05-05T23:57:00.588Z,100319.19
2023-05-05T23:59:27.022Z,100318.91
